Detailed Flight Report of Safa INALTEKIN ;
Number CXD159 
Departure Aerodrome LTFJ 
Arrival Aerodrome LTAI

Map generated by the Great Circle Mapper - copyright © Karl L. Swartz.

Pilot In Command CXD159 : Safa Inaltekin
Aircraft B738 / TC-KRD
Date Of Flight 2019-11-02
Departure Time 19:34 UTC
Arrival Time 20:42 UTC
Block Time 01:08
Distance 295 Nm.
Used Fuel 5,945 Lbs.
   
Detailed Flight Log [2019/11/02 19:04:00]
Flight IATA:C159
Pilot Number:159
Company ICAO:CXD
Aircraft Type:B738
Aircraft Registration:TC-KRD
Departing Airport: LTFJ
Destination Airport: LTAI
Alternate Airport:LTFG
Online: VATSIM
Route:EDAS1J EDASA UT338 TEKDO T35 BABSA BABS1A
Flight Level:FL350
No pause
19:04 Zero fuel Weight: 121476 Lbs, Fuel Weight: 9839 Lbs
19:04 VATSIM:LTFJ 021850Z 03009KT CAVOK 11/07 Q1019 NOSIG
19:04 VATSIM:LTAI 021850Z 35006KT CAVOK 15/08 Q1017 NOSIG
19:12 Parking Brakes off
19:25 VR= 154 Knots
19:25 V2= 161 Knots
19:25 Take-off
19:25 Take off Weight: 130664 Lbs
19:25 Wind: 049º @ 020 Knots Heading: 061º
19:25 POS N40º 53´ 50´´ E029º 18´ 21´´
19:25 N11 100 N12 100
19:25 Flaps:5º at 163 Knots
19:25 Gear Up: 165 Knots
19:26 Flaps:2º at 202 Knots
19:26 Flaps:1º at 208 Knots
19:26 Flaps:Up at 217 Knots
19:40 Wind:269º@029 Knots Heading: 172º Ground Speed: 458
Knots Altitude 33559 ft
19:40 TOC
19:40 Fuel Weight: 6069 Lb
19:47 TOD
19:47 Fuel Weight: 5545 Lb
19:55 Wind:280º@020 Knots Heading: 162º Ground Speed: 403 Knots Altitude 21112 ft
20:05 Flaps:1º at 230 Knots
20:05 Flaps:2º at 219 Knots
20:08 Flaps:5º at 209 Knots
20:10 Wind:248º@004 Knots Heading: 034º Ground Speed: 195 Knots Altitude 1712 ft
20:11 Gear Down: 169 Knots
20:11 Flaps:10º at 169 Knots
20:11 Flaps:15º at 169 Knots
20:12 Flaps:25º at 160 Knots
20:12 Flaps:30º at 150 Knots
20:12 Flaps:Full at 150 Knots
20:14 TouchDown:Rate -81 ft/min Speed: 126 Knots
20:14 VATSIM:LTAI 021950Z 35006KT CAVOK 14/08 Q1017 NOSIG
20:14 Land
20:14 Wind:163º@009 Knots
20:14 Heading: 007º
20:14 Flight Duration: 00:49
20:14 Landing Weight: 125678 Lbs
20:14 POS N36º 54´ 00´´ E030º 47´ 33´´
20:20 Parking brakes on
20:20 Block to Block Duration: 01:08
20:20 Final Fue
l: 3893 Lbls
20:20 Spent Fuel: 5945 Lbls
20:20 Flight Length: 295 NM
20:20 TOD Land Length: 147 NM

Text Link of Flight Log http://www.candanair.net/acars/logs/CXD15920191102190400.txt
   

[ Back ]